createdAt,value
2019-05-03T00:02:21.675Z,32.80
2019-05-03T00:05:04.455Z,31.40
2019-05-03T00:07:37.014Z,29.60
2019-05-03T00:10:10.456Z,28.30
2019-05-03T00:12:43.134Z,28.30
2019-05-03T00:15:17.655Z,27.80
2019-05-03T00:17:50.209Z,27.30
2019-05-03T00:20:22.681Z,26.50
2019-05-03T00:22:55.018Z,25.80
2019-05-03T00:25:27.454Z,25.60
2019-05-03T00:28:01.718Z,25.60
2019-05-03T00:30:33.754Z,25.00
2019-05-03T00:33:06.311Z,24.80
2019-05-03T00:35:48.814Z,24.80
2019-05-03T00:38:21.883Z,24.30
2019-05-03T00:40:54.406Z,24.20
2019-05-03T00:43:26.813Z,24.00
2019-05-03T00:45:59.190Z,24.00
2019-05-03T00:48:32.666Z,23.50
2019-05-03T00:51:05.100Z,23.60
2019-05-03T00:53:37.522Z,23.10
2019-05-03T00:56:09.937Z,23.10
2019-05-03T00:58:52.985Z,23.20
2019-05-03T01:01:25.747Z,23.10
2019-05-03T01:03:58.211Z,22.60
2019-05-03T01:06:31.856Z,22.50
2019-05-03T01:09:05.394Z,22.30
2019-05-03T01:11:38.337Z,22.10
2019-05-03T01:14:11.985Z,22.30
2019-05-03T01:16:44.441Z,22.10
2019-05-03T01:19:17.078Z,21.90
2019-05-03T01:21:51.476Z,21.80
2019-05-03T01:24:23.367Z,21.80
2019-05-03T01:26:55.730Z,21.70
2019-05-03T01:29:28.509Z,21.70
2019-05-03T01:32:02.378Z,21.00
2019-05-03T01:34:35.822Z,20.60
2019-05-03T01:37:11.929Z,20.70
2019-05-03T01:39:44.401Z,20.60
2019-05-03T01:42:17.001Z,20.20
2019-05-03T01:44:49.449Z,20.20
2019-05-03T01:47:26.308Z,20.30
2019-05-03T01:50:12.381Z,20.00
2019-05-03T01:52:48.943Z,19.60
2019-05-03T01:55:22.640Z,20.00
2019-05-03T01:57:55.132Z,19.80
2019-05-03T02:00:28.839Z,19.40
2019-05-03T02:03:05.822Z,19.10
2019-05-03T02:05:45.693Z,19.00
2019-05-03T02:08:18.267Z,19.10
2019-05-03T02:10:51.788Z,19.20
2019-05-03T02:13:24.930Z,19.00
2019-05-03T02:15:57.277Z,18.80
2019-05-03T02:18:31.695Z,18.80
2019-05-03T02:21:03.588Z,18.70
2019-05-03T02:23:35.959Z,18.60
2019-05-03T02:26:08.341Z,18.60
2019-05-03T02:28:42.158Z,18.50
2019-05-03T02:31:14.797Z,18.40
2019-05-03T02:33:47.360Z,18.30
2019-05-03T02:36:23.028Z,18.20
2019-05-03T02:38:54.255Z,17.90
2019-05-03T02:41:26.912Z,17.70
2019-05-03T02:44:00.497Z,17.80
2019-05-03T02:46:45.430Z,17.70
2019-05-03T02:49:25.738Z,17.40
2019-05-03T02:51:58.369Z,17.40
2019-05-03T02:54:30.778Z,17.10
2019-05-03T02:57:06.124Z,17.00
2019-05-03T02:59:37.149Z,16.80
2019-05-03T03:02:10.823Z,16.90
2019-05-03T03:04:45.381Z,17.10
2019-05-03T03:07:17.557Z,16.90
2019-05-03T03:09:50.958Z,16.80
2019-05-03T03:12:25.775Z,16.70
2019-05-03T03:15:00.966Z,16.70
2019-05-03T03:17:45.749Z,16.80
2019-05-03T03:20:18.656Z,18.80
2019-05-03T03:22:55.553Z,17.90
2019-05-03T03:25:31.199Z,17.20
2019-05-03T03:28:05.433Z,16.80
2019-05-03T03:31:10.444Z,16.50
2019-05-03T03:33:47.108Z,16.40
2019-05-03T03:36:37.761Z,16.30
2019-05-03T03:38:50.513Z,16.20
2019-05-03T03:41:24.984Z,16.30
2019-05-03T03:43:59.065Z,16.10
2019-05-03T03:46:35.624Z,16.00
2019-05-03T03:49:08.566Z,16.00
2019-05-03T03:51:42.262Z,15.90
2019-05-03T03:54:17.230Z,15.80
2019-05-03T03:57:03.847Z,15.60
2019-05-03T03:59:31.754Z,15.60
2019-05-03T04:02:06.070Z,15.60
2019-05-03T04:04:39.276Z,15.60
2019-05-03T04:07:11.735Z,15.50
2019-05-03T04:09:45.710Z,15.60
2019-05-03T04:12:19.372Z,15.50
2019-05-03T04:14:56.378Z,15.60
2019-05-03T04:17:32.215Z,15.40
2019-05-03T04:20:05.539Z,15.50
2019-05-03T04:22:38.471Z,15.40
2019-05-03T04:25:11.030Z,15.40
2019-05-03T04:27:45.676Z,15.40
2019-05-03T04:30:17.435Z,15.30
2019-05-03T04:32:49.889Z,15.30
2019-05-03T05:12:57.103Z,15.70
2019-05-03T05:15:29.796Z,15.10
2019-05-03T05:18:05.828Z,14.80
2019-05-03T05:20:45.482Z,15.50
2019-05-03T05:23:18.121Z,15.00
2019-05-03T05:25:55.029Z,14.90
2019-05-03T05:28:35.506Z,14.70
2019-05-03T05:31:08.026Z,14.70
2019-05-03T05:33:40.556Z,14.70
2019-05-03T05:36:12.935Z,14.60
2019-05-03T05:38:45.348Z,14.60
2019-05-03T05:41:18.085Z,14.50
2019-05-03T05:43:50.449Z,14.60
2019-05-03T05:46:24.915Z,14.50
2019-05-03T05:48:57.416Z,14.50
2019-05-03T05:51:30.430Z,14.40
2019-05-03T05:54:05.103Z,14.20
2019-05-03T05:56:44.528Z,14.10
2019-05-03T05:59:24.780Z,14.20
2019-05-03T06:01:58.613Z,14.20
2019-05-03T06:04:31.004Z,14.00
2019-05-03T06:07:07.361Z,14.00
2019-05-03T06:09:52.217Z,13.90
2019-05-03T06:12:31.570Z,14.00
2019-05-03T06:15:05.575Z,13.90
2019-05-03T06:17:39.522Z,13.90
2019-05-03T06:20:15.576Z,13.90
2019-05-03T06:22:48.960Z,13.80
2019-05-03T06:25:26.475Z,13.80
2019-05-03T06:27:59.552Z,13.80
2019-05-03T06:30:50.781Z,13.50
2019-05-03T06:33:24.485Z,13.40
2019-05-03T06:35:56.946Z,13.50
2019-05-03T06:38:29.328Z,13.50
2019-05-03T06:41:01.771Z,13.50
2019-05-03T06:43:34.807Z,13.30
2019-05-03T06:46:07.558Z,13.20
2019-05-03T06:48:40.063Z,13.20
2019-05-03T06:51:17.849Z,13.10
2019-05-03T06:53:49.025Z,13.10
2019-05-03T06:56:24.963Z,13.00
2019-05-03T06:58:55.154Z,13.10
2019-05-03T07:01:31.511Z,13.00
2019-05-03T07:04:08.126Z,12.90
2019-05-03T07:06:41.833Z,12.80
2019-05-03T07:09:21.595Z,12.90
2019-05-03T07:11:55.517Z,12.90
2019-05-03T07:14:27.722Z,12.80
2019-05-03T07:17:00.263Z,12.80
2019-05-03T07:19:32.753Z,12.70
2019-05-03T07:22:05.606Z,12.60
2019-05-03T07:24:40.775Z,12.50
2019-05-03T07:27:11.920Z,12.50
2019-05-03T07:29:44.605Z,12.50
2019-05-03T07:32:17.145Z,12.50
2019-05-03T07:34:49.521Z,12.50
2019-05-03T07:37:21.887Z,12.60
2019-05-03T07:39:55.587Z,12.50
2019-05-03T07:42:28.129Z,12.40
2019-05-03T07:45:00.462Z,12.20
2019-05-03T07:47:34.792Z,12.00
2019-05-03T07:50:08.103Z,12.00
2019-05-03T07:52:40.605Z,12.00
2019-05-03T07:55:14.831Z,12.00
2019-05-03T07:57:48.429Z,11.90
2019-05-03T08:00:22.249Z,11.80
2019-05-03T08:02:54.997Z,11.70
2019-05-03T08:05:27.493Z,11.70
2019-05-03T08:07:59.834Z,11.70
2019-05-03T08:10:32.162Z,11.70
2019-05-03T08:13:04.760Z,11.60
2019-05-03T08:15:38.175Z,11.60
2019-05-03T08:18:10.960Z,11.60
2019-05-03T08:20:45.087Z,11.60
2019-05-03T08:23:26.500Z,11.60
2019-05-03T08:25:51.528Z,11.50
2019-05-03T08:28:24.741Z,11.50
2019-05-03T08:30:58.519Z,11.50
2019-05-03T08:33:35.520Z,11.50
2019-05-03T08:36:08.105Z,11.40
2019-05-03T08:38:40.520Z,11.50
2019-05-03T08:41:14.558Z,11.40
2019-05-03T08:43:47.075Z,11.40
2019-05-03T08:46:19.417Z,11.20
2019-05-03T08:48:51.738Z,11.10
2019-05-03T08:51:25.001Z,11.00
2019-05-03T08:53:57.606Z,10.90
2019-05-03T08:56:29.978Z,11.00
2019-05-03T08:59:04.534Z,10.90
2019-05-03T09:01:39.303Z,11.00
2019-05-03T09:04:09.908Z,10.90
2019-05-03T09:06:42.341Z,10.90
2019-05-03T09:09:21.679Z,10.90
2019-05-03T09:11:55.528Z,10.80
2019-05-03T09:14:38.869Z,10.80
2019-05-03T09:17:01.570Z,10.90
2019-05-03T09:19:34.740Z,10.90
2019-05-03T09:22:07.390Z,10.70
2019-05-03T09:24:39.909Z,10.80
2019-05-03T09:27:12.297Z,10.80
2019-05-03T09:29:46.221Z,10.70
2019-05-03T09:32:19.501Z,10.70
2019-05-03T09:34:51.815Z,10.60
2019-05-03T09:37:24.985Z,10.50
2019-05-03T09:39:57.720Z,10.50
2019-05-03T09:42:30.061Z,10.40
2019-05-03T09:45:04.919Z,10.50
2019-05-03T09:47:37.143Z,10.40
2019-05-03T09:50:11.169Z,10.40
2019-05-03T09:52:46.845Z,10.40
2019-05-03T09:55:19.062Z,10.40
2019-05-03T09:57:51.434Z,10.40
2019-05-03T10:00:24.542Z,10.30
2019-05-03T10:02:57.009Z,10.10
2019-05-03T10:05:29.334Z,10.10
2019-05-03T10:08:02.335Z,10.10
2019-05-03T10:10:52.087Z,10.20
2019-05-03T10:13:27.099Z,10.10
2019-05-03T10:15:58.698Z,10.00
2019-05-03T10:18:31.046Z,10.10
2019-05-03T10:21:05.350Z,10.00
2019-05-03T10:23:38.939Z,9.90
2019-05-03T10:26:11.757Z,10.00
2019-05-03T10:28:45.166Z,10.00
2019-05-03T10:31:17.490Z,10.00
2019-05-03T10:33:51.600Z,10.00
2019-05-03T10:36:24.996Z,10.00
2019-05-03T10:38:57.465Z,10.00
2019-05-03T10:41:29.950Z,9.90
2019-05-03T10:44:02.503Z,9.90
2019-05-03T10:46:36.119Z,9.80
2019-05-03T10:49:08.595Z,9.90
2019-05-03T10:51:42.401Z,9.90
2019-05-03T10:54:15.010Z,9.80
2019-05-03T10:56:48.978Z,9.90
2019-05-03T10:59:22.039Z,9.90
2019-05-03T11:01:58.551Z,9.90
2019-05-03T11:04:31.695Z,9.80
2019-05-03T11:07:05.525Z,9.80
2019-05-03T11:09:48.823Z,9.90
2019-05-03T11:12:14.761Z,9.80
2019-05-03T11:14:46.914Z,9.80
2019-05-03T11:17:19.257Z,9.80
2019-05-03T11:19:51.615Z,9.70
2019-05-03T11:22:25.217Z,9.80
2019-05-03T11:24:57.981Z,9.70
2019-05-03T11:27:37.778Z,9.80
2019-05-03T11:30:10.489Z,9.70
2019-05-03T11:32:47.204Z,9.80
2019-05-03T11:35:24.704Z,9.90
2019-05-03T11:37:58.474Z,9.80
2019-05-03T11:40:30.813Z,9.80
2019-05-03T11:43:04.626Z,9.70
2019-05-03T11:45:37.206Z,9.70
2019-05-03T11:48:09.783Z,9.80
2019-05-03T11:50:42.135Z,9.70
2019-05-03T11:53:14.665Z,9.70
2019-05-03T11:55:47.668Z,9.60
2019-05-03T11:58:21.679Z,9.60
2019-05-03T12:01:11.669Z,9.70
2019-05-03T12:03:36.555Z,9.60
2019-05-03T12:06:10.205Z,9.60
2019-05-03T12:08:44.626Z,9.60
2019-05-03T12:11:16.354Z,9.60
2019-05-03T12:14:01.449Z,9.50
2019-05-03T12:16:48.677Z,9.60
2019-05-03T12:18:56.617Z,9.50
2019-05-03T12:21:30.691Z,9.50
2019-05-03T12:24:06.210Z,9.50
2019-05-03T12:26:43.877Z,9.40
2019-05-03T12:29:11.665Z,9.40
2019-05-03T12:31:45.599Z,9.40
2019-05-03T12:34:17.794Z,9.40
2019-05-03T12:36:51.487Z,9.40
2019-05-03T12:39:29.565Z,9.40
2019-05-03T12:41:57.879Z,9.30
2019-05-03T12:44:30.206Z,9.40
2019-05-03T12:47:02.782Z,9.30
2019-05-03T12:49:36.094Z,9.30
2019-05-03T12:52:10.553Z,9.40
2019-05-03T12:54:42.241Z,9.40
2019-05-03T12:57:15.505Z,9.30
2019-05-03T13:00:01.632Z,9.30
2019-05-03T13:02:35.561Z,9.30
2019-05-03T13:05:07.961Z,9.30
2019-05-03T13:07:45.530Z,9.30
2019-05-03T13:10:22.840Z,9.20
2019-05-03T13:12:53.293Z,9.00
2019-05-03T13:15:25.852Z,9.00
2019-05-03T13:17:58.207Z,9.00
2019-05-03T13:20:30.605Z,9.10
2019-05-03T13:23:05.302Z,9.00
2019-05-03T13:25:36.998Z,9.10
2019-05-03T13:28:09.531Z,9.20
2019-05-03T13:30:42.206Z,9.10
2019-05-03T13:33:15.243Z,9.10
2019-05-03T13:35:47.833Z,9.20
2019-05-03T13:38:20.154Z,9.30
2019-05-03T13:40:54.265Z,9.30
2019-05-03T13:43:26.964Z,9.40
2019-05-03T13:45:59.273Z,9.50
2019-05-03T13:48:42.775Z,9.50
2019-05-03T13:51:05.549Z,9.60
2019-05-03T13:53:37.942Z,9.60
2019-05-03T13:56:10.319Z,9.70
2019-05-03T13:58:44.550Z,9.80
2019-05-03T14:01:16.701Z,9.90
2019-05-03T14:03:49.050Z,10.00
2019-05-03T14:06:21.495Z,10.00
2019-05-03T14:08:54.846Z,10.10
2019-05-03T14:11:27.443Z,10.20
2019-05-03T14:13:59.812Z,10.30
2019-05-03T14:16:32.246Z,10.40
2019-05-03T14:19:06.332Z,10.50
2019-05-03T14:21:42.655Z,10.60
2019-05-03T14:24:15.758Z,10.70
2019-05-03T14:26:48.416Z,10.80
2019-05-03T14:29:20.962Z,10.90
2019-05-03T14:31:54.521Z,11.00
2019-05-03T14:34:27.011Z,11.00
2019-05-03T14:36:59.345Z,11.10
2019-05-03T14:39:32.856Z,11.30
2019-05-03T14:42:05.493Z,11.50
2019-05-03T14:44:38.743Z,11.60
2019-05-03T14:47:11.900Z,11.70
2019-05-03T14:49:45.203Z,11.80
2019-05-03T14:52:17.503Z,11.80
2019-05-03T14:54:51.258Z,11.80
2019-05-03T14:57:31.874Z,12.00
2019-05-03T15:00:08.667Z,12.10
2019-05-03T15:02:47.505Z,12.20
2019-05-03T15:05:16.637Z,12.40
2019-05-03T15:07:50.370Z,12.50
2019-05-03T15:10:24.749Z,12.60
2019-05-03T15:12:57.265Z,12.70
2019-05-03T15:15:29.646Z,12.80
2019-05-03T15:18:02.232Z,12.80
2019-05-03T15:20:34.882Z,13.00
2019-05-03T15:23:07.474Z,13.00
2019-05-03T15:25:39.737Z,13.10
2019-05-03T15:28:12.363Z,13.30
2019-05-03T15:30:44.905Z,13.40
2019-05-03T15:33:17.677Z,13.60
2019-05-03T15:35:50.052Z,13.70
2019-05-03T15:38:22.760Z,13.80
2019-05-03T15:40:56.029Z,13.90
2019-05-03T15:43:29.548Z,14.00
2019-05-03T15:46:05.042Z,14.20
2019-05-03T15:48:38.763Z,14.30
2019-05-03T15:51:25.947Z,14.40
2019-05-03T15:53:59.686Z,14.50
2019-05-03T15:56:31.868Z,14.80
2019-05-03T15:59:04.460Z,15.00
2019-05-03T16:01:37.388Z,15.30
2019-05-03T16:04:09.808Z,15.50
2019-05-03T16:06:42.494Z,15.70
2019-05-03T16:09:15.320Z,15.80
2019-05-03T16:11:47.832Z,15.90
2019-05-03T16:14:20.275Z,16.00
2019-05-03T16:16:54.628Z,16.20
2019-05-03T16:19:26.550Z,16.30
2019-05-03T16:21:58.935Z,16.80
2019-05-03T16:24:31.295Z,16.90
2019-05-03T16:27:24.707Z,17.10
2019-05-03T16:29:57.153Z,17.30
2019-05-03T16:32:30.078Z,17.40
2019-05-03T16:35:04.386Z,17.40
2019-05-03T16:37:36.400Z,17.70
2019-05-03T16:40:08.738Z,17.70
2019-05-03T16:42:41.032Z,17.80
2019-05-03T16:45:14.488Z,17.90
2019-05-03T16:47:47.586Z,18.00
2019-05-03T16:50:20.141Z,18.20
2019-05-03T16:52:52.504Z,18.50
2019-05-03T16:55:25.690Z,18.30
2019-05-03T16:57:58.356Z,18.50
2019-05-03T17:00:30.828Z,18.60
2019-05-03T17:03:05.542Z,18.70
2019-05-03T17:05:54.893Z,19.00
2019-05-03T17:08:32.001Z,19.20
2019-05-03T17:11:08.619Z,19.20
2019-05-03T17:13:41.202Z,19.30
2019-05-03T17:16:14.579Z,19.70
2019-05-03T17:18:47.182Z,19.40
2019-05-03T17:21:19.545Z,19.50
2019-05-03T17:23:52.058Z,20.00
2019-05-03T17:26:25.013Z,20.00
2019-05-03T17:28:57.603Z,20.50
2019-05-03T17:31:30.112Z,20.40
2019-05-03T17:34:05.389Z,20.50
2019-05-03T17:36:37.869Z,21.00
2019-05-03T17:39:11.919Z,21.10
2019-05-03T17:41:48.572Z,20.90
2019-05-03T17:44:22.391Z,21.20
2019-05-03T17:46:54.852Z,21.60
2019-05-03T17:49:27.441Z,22.00
2019-05-03T17:52:04.805Z,22.20
2019-05-03T17:54:44.924Z,22.10
2019-05-03T17:57:18.666Z,22.00
2019-05-03T17:59:52.480Z,21.80
2019-05-03T18:02:40.887Z,21.80
2019-05-03T18:05:30.877Z,21.50
2019-05-03T18:08:20.523Z,21.90
2019-05-03T18:10:55.030Z,22.10
2019-05-03T18:13:27.983Z,22.30
2019-05-03T18:16:00.466Z,22.00
2019-05-03T18:18:32.796Z,22.10
2019-05-03T18:23:47.977Z,22.70
2019-05-03T18:26:20.418Z,22.60
2019-05-03T18:28:52.807Z,22.80
2019-05-03T18:31:25.482Z,23.00
2019-05-03T18:33:58.038Z,23.60
2019-05-03T18:36:32.325Z,23.10
2019-05-03T18:39:05.539Z,23.10
2019-05-03T18:41:38.778Z,23.00
2019-05-03T18:44:21.865Z,23.40
2019-05-03T18:46:59.020Z,24.10
2019-05-03T18:49:31.429Z,23.30
2019-05-03T18:52:04.396Z,23.50
2019-05-03T18:54:37.956Z,23.30
2019-05-03T18:57:10.284Z,23.70
2019-05-03T18:59:42.639Z,23.30
2019-05-03T19:02:15.634Z,24.10
2019-05-03T19:04:52.289Z,25.00
2019-05-03T19:07:42.164Z,25.00
2019-05-03T19:10:16.233Z,25.80
2019-05-03T19:13:05.113Z,25.20
2019-05-03T19:15:37.475Z,25.40
2019-05-03T19:18:11.241Z,26.20
2019-05-03T19:20:45.437Z,26.90
2019-05-03T19:23:17.341Z,28.70
2019-05-03T19:25:49.952Z,31.00
2019-05-03T19:28:24.732Z,31.80
2019-05-03T19:30:56.792Z,32.80
2019-05-03T19:33:29.276Z,34.00
2019-05-03T19:36:04.346Z,34.40
2019-05-03T19:38:36.473Z,34.00
2019-05-03T19:41:09.297Z,33.40
2019-05-03T19:43:41.742Z,35.10
2019-05-03T19:46:14.081Z,34.90
2019-05-03T19:48:47.005Z,35.50
2019-05-03T19:51:19.405Z,35.30
2019-05-03T19:53:57.395Z,34.90
2019-05-03T19:56:29.742Z,33.50
2019-05-03T19:59:04.652Z,34.20
2019-05-03T20:01:38.894Z,35.60
2019-05-03T20:04:18.666Z,34.40
2019-05-03T20:06:52.503Z,34.40
2019-05-03T20:09:26.421Z,33.50
2019-05-03T20:11:59.719Z,34.90
2019-05-03T20:14:35.712Z,35.30
2019-05-03T20:17:07.991Z,34.40
2019-05-03T20:19:40.306Z,35.40
2019-05-03T20:22:12.678Z,36.70
2019-05-03T20:24:45.070Z,36.00
2019-05-03T20:27:17.433Z,36.20
2019-05-03T20:29:49.854Z,37.30
2019-05-03T20:32:22.816Z,36.50
2019-05-03T20:34:56.523Z,35.80
2019-05-03T20:37:29.054Z,35.80
2019-05-03T20:40:01.566Z,35.90
2019-05-03T20:42:47.754Z,37.60
2019-05-03T20:45:25.001Z,37.20
2019-05-03T20:47:58.825Z,37.20
2019-05-03T20:50:31.257Z,38.50
2019-05-03T20:53:05.228Z,38.60
2019-05-03T20:55:37.653Z,37.40
2019-05-03T20:58:11.422Z,38.00
2019-05-03T21:00:45.137Z,37.90
2019-05-03T21:03:18.144Z,36.50
2019-05-03T21:05:50.646Z,38.50
2019-05-03T21:08:25.286Z,37.50
2019-05-03T21:10:57.205Z,38.50
2019-05-03T21:13:41.800Z,37.20
2019-05-03T21:16:20.519Z,38.50
2019-05-03T21:19:04.858Z,37.40
2019-05-03T21:21:41.028Z,38.00
2019-05-03T21:24:14.769Z,40.10
2019-05-03T21:26:47.132Z,39.20
2019-05-03T21:29:19.514Z,36.70
2019-05-03T21:31:51.857Z,39.20
2019-05-03T21:34:25.174Z,40.30
2019-05-03T21:36:57.691Z,40.20
2019-05-03T21:39:30.460Z,40.40
2019-05-03T21:42:04.724Z,40.80
2019-05-03T21:44:37.609Z,42.00
2019-05-03T21:47:24.617Z,40.00
2019-05-03T21:49:58.296Z,38.30
2019-05-03T21:52:30.849Z,41.10
2019-05-03T21:55:05.357Z,39.60
2019-05-03T21:57:37.058Z,37.70
2019-05-03T22:00:10.121Z,38.60
2019-05-03T22:02:44.065Z,38.20
2019-05-03T22:05:16.826Z,40.50
2019-05-03T22:07:49.646Z,39.10
2019-05-03T22:10:22.288Z,40.30
2019-05-03T22:12:54.837Z,35.70
2019-05-03T22:15:31.317Z,37.40
2019-05-03T22:18:05.160Z,37.20
2019-05-03T22:20:38.871Z,38.20
2019-05-03T22:23:14.889Z,39.10
2019-05-03T22:25:46.752Z,40.60
2019-05-03T22:28:19.153Z,38.90
2019-05-03T22:30:51.610Z,37.90
2019-05-03T22:33:24.018Z,39.10
2019-05-03T22:36:08.310Z,40.40
2019-05-03T22:38:30.197Z,39.50
2019-05-03T22:41:02.742Z,35.50
2019-05-03T22:43:35.715Z,34.80
2019-05-03T22:46:08.516Z,36.30
2019-05-03T22:48:41.740Z,34.80
2019-05-03T22:51:15.143Z,34.80
2019-05-03T22:53:47.658Z,35.40
2019-05-03T22:56:20.112Z,35.40
2019-05-03T22:58:54.679Z,38.10
2019-05-03T23:01:27.266Z,38.30
2019-05-03T23:04:00.848Z,38.30
2019-05-03T23:06:33.713Z,39.10
2019-05-03T23:09:07.083Z,39.50
2019-05-03T23:11:39.509Z,40.00
2019-05-03T23:14:12.053Z,39.50
2019-05-03T23:16:45.267Z,39.60
2019-05-03T23:19:17.869Z,38.30
2019-05-03T23:21:54.664Z,38.30
2019-05-03T23:24:27.054Z,38.00
2019-05-03T23:26:59.875Z,35.60
2019-05-03T23:29:34.762Z,33.50
2019-05-03T23:32:06.634Z,33.30
2019-05-03T23:34:39.201Z,33.40
2019-05-03T23:37:11.641Z,35.80
2019-05-03T23:39:46.133Z,35.90
2019-05-03T23:42:18.673Z,34.10
2019-05-03T23:44:51.305Z,33.20
2019-05-03T23:47:31.778Z,33.00
2019-05-03T23:50:04.341Z,32.30
2019-05-03T23:52:36.788Z,32.00
2019-05-03T23:55:19.979Z,30.80
2019-05-03T23:57:52.400Z,30.50
